Time;durP1;ratioP1;P1;durP2;ratioP2;P2;SDS_P1;SDS_P2;PMS_P1;PMS_P2;Temp;Humidity;BMP_temperature;BMP_pressure;BME280_temperature;BME280_humidity;BME280_pressure;Samples;Min_cycle;Max_cycle;Signal;HPM_P1;HPM_P2
2022/08/29 00:00:19;;;;;;;4.57;1.70;;;;;;;;;;4971029;28;20045;-72
2022/08/29 00:02:47;;;;;;;6.13;1.88;;;;;;;;;;4976137;28;20038;-71
2022/08/29 00:05:13;;;;;;;4.03;1.83;;;;;;;;;;4984760;28;20084;-71
2022/08/29 00:07:39;;;;;;;6.03;1.70;;;;;;;;;;4986035;28;20034;-72
2022/08/29 00:10:06;;;;;;;7.00;1.88;;;;;;;;;;4972725;28;20035;-71
2022/08/29 00:12:32;;;;;;;5.32;1.70;;;;;;;;;;4960173;28;20033;-72
2022/08/29 00:14:58;;;;;;;7.00;1.60;;;;;;;;;;4975022;28;20034;-72
2022/08/29 00:17:24;;;;;;;4.90;1.77;;;;;;;;;;4976915;28;20054;-72
2022/08/29 00:19:50;;;;;;;7.00;1.85;;;;;;;;;;4977874;28;20058;-72
2022/08/29 00:22:16;;;;;;;4.72;1.70;;;;;;;;;;4974465;28;20042;-70
2022/08/29 00:24:43;;;;;;;6.07;1.77;;;;;;;;;;4983676;28;20038;-70
2022/08/29 00:27:09;;;;;;;6.53;1.60;;;;;;;;;;4983453;28;20422;-71
2022/08/29 00:29:35;;;;;;;5.10;1.52;;;;;;;;;;4963813;28;20042;-72
2022/08/29 00:32:01;;;;;;;5.72;1.65;;;;;;;;;;4972324;28;20018;-72
2022/08/29 00:34:27;;;;;;;7.13;2.15;;;;;;;;;;4977269;28;20128;-72
2022/08/29 00:36:53;;;;;;;5.82;1.85;;;;;;;;;;4988683;28;20489;-72
2022/08/29 00:39:20;;;;;;;5.53;1.63;;;;;;;;;;4985606;28;20023;-71
2022/08/29 00:41:46;;;;;;;6.00;1.98;;;;;;;;;;4989093;28;20138;-72
2022/08/29 00:44:13;;;;;;;5.13;1.70;;;;;;;;;;4974775;28;20035;-72
2022/08/29 00:46:45;;;;;;;6.28;1.67;;;;;;;;;;4971900;28;20054;-72
2022/08/29 00:49:31;;;;;;;5.25;1.70;;;;;;;;;;4980614;28;20035;-72
2022/08/29 00:52:02;;;;;;;8.60;1.90;;;;;;;;;;4967441;28;20044;-71
2022/08/29 00:54:29;;;;;;;7.72;1.80;;;;;;;;;;4976068;28;20027;-72
2022/08/29 00:56:57;;;;;;;5.75;2.00;;;;;;;;;;4970370;28;20081;-72
2022/08/29 00:59:26;;;;;;;7.10;2.08;;;;;;;;;;4975098;28;20037;-71
2022/08/29 01:01:52;;;;;;;4.93;1.55;;;;;;;;;;4985369;28;20054;-72
2022/08/29 01:04:18;;;;;;;5.28;1.60;;;;;;;;;;4987214;28;20019;-71
2022/08/29 01:06:47;;;;;;;4.80;1.85;;;;;;;;;;4973305;28;20112;-71
2022/08/29 01:09:14;;;;;;;8.10;2.00;;;;;;;;;;4971863;28;20023;-72
2022/08/29 01:14:27;;;;;;;6.65;1.88;;;;;;;;;;4985105;28;20069;-72
2022/08/29 01:16:56;;;;;;;5.53;2.00;;;;;;;;;;4982825;28;20033;-72
2022/08/29 01:19:42;;;;;;;4.93;1.75;;;;;;;;;;4956675;28;20035;-72
2022/08/29 01:22:40;;;;;;;7.00;2.08;;;;;;;;;;4972572;28;20595;-72
2022/08/29 01:25:08;;;;;;;7.45;2.13;;;;;;;;;;4927604;28;20441;-72
2022/08/29 01:27:38;;;;;;;6.07;1.95;;;;;;;;;;4986978;28;20027;-72
2022/08/29 01:30:05;;;;;;;4.45;1.67;;;;;;;;;;4978250;28;20430;-72
2022/08/29 01:32:31;;;;;;;5.55;1.75;;;;;;;;;;4992170;28;20022;-72
2022/08/29 01:34:57;;;;;;;5.55;1.88;;;;;;;;;;4982738;28;20049;-72
2022/08/29 01:37:33;;;;;;;4.88;1.70;;;;;;;;;;4987136;28;20030;-71
2022/08/29 01:39:59;;;;;;;5.78;1.52;;;;;;;;;;4988968;28;20061;-71
2022/08/29 01:42:25;;;;;;;5.80;1.70;;;;;;;;;;4982013;28;20413;-71
2022/08/29 01:44:53;;;;;;;6.75;2.13;;;;;;;;;;4974876;28;20030;-72
2022/08/29 01:47:19;;;;;;;4.82;1.92;;;;;;;;;;4982154;28;20050;-72
2022/08/29 01:49:45;;;;;;;6.88;1.80;;;;;;;;;;4992093;28;20014;-72
2022/08/29 01:52:12;;;;;;;5.30;1.67;;;;;;;;;;4984146;28;20469;-72
2022/08/29 01:54:41;;;;;;;5.68;2.13;;;;;;;;;;4974694;28;20023;-72
2022/08/29 01:57:08;;;;;;;7.70;2.05;;;;;;;;;;4983671;28;20022;-72
2022/08/29 01:59:35;;;;;;;8.48;2.17;;;;;;;;;;4986821;28;20033;-73
2022/08/29 02:02:01;;;;;;;6.03;2.00;;;;;;;;;;4984944;28;20073;-72
2022/08/29 02:04:27;;;;;;;8.38;2.10;;;;;;;;;;4979323;28;20058;-72
2022/08/29 02:06:54;;;;;;;8.15;2.08;;;;;;;;;;4961019;28;20049;-72
2022/08/29 02:09:21;;;;;;;8.02;2.40;;;;;;;;;;4953871;28;20773;-72
2022/08/29 02:11:47;;;;;;;6.38;2.30;;;;;;;;;;4982233;28;20226;-72
2022/08/29 02:14:14;;;;;;;9.63;2.63;;;;;;;;;;4975229;28;20026;-72
2022/08/29 02:16:40;;;;;;;6.45;2.25;;;;;;;;;;4980684;28;20027;-72
2022/08/29 02:19:06;;;;;;;5.53;2.05;;;;;;;;;;4977247;28;20105;-72
2022/08/29 02:21:32;;;;;;;6.53;2.40;;;;;;;;;;4981100;28;20073;-72
2022/08/29 02:23:59;;;;;;;7.47;2.45;;;;;;;;;;4964263;28;20031;-73
2022/08/29 02:26:26;;;;;;;6.50;2.38;;;;;;;;;;4977483;28;20046;-73
2022/08/29 02:28:52;;;;;;;6.90;2.30;;;;;;;;;;4973885;28;20062;-72
2022/08/29 02:31:20;;;;;;;7.85;2.58;;;;;;;;;;4977100;28;20030;-72
2022/08/29 02:33:46;;;;;;;10.77;3.25;;;;;;;;;;4983703;28;20386;-72
2022/08/29 02:36:12;;;;;;;6.78;2.78;;;;;;;;;;4982237;28;20374;-73
2022/08/29 02:38:38;;;;;;;7.68;2.67;;;;;;;;;;4983258;28;20026;-72
2022/08/29 02:41:05;;;;;;;8.82;2.80;;;;;;;;;;4981500;28;20096;-72
2022/08/29 02:43:31;;;;;;;8.52;3.15;;;;;;;;;;4978648;28;20026;-72
2022/08/29 02:45:58;;;;;;;7.57;2.97;;;;;;;;;;4991566;28;20076;-71
2022/08/29 02:48:25;;;;;;;8.50;3.05;;;;;;;;;;4977485;28;20097;-72
2022/08/29 02:50:52;;;;;;;9.55;4.07;;;;;;;;;;4991634;28;20054;-71
2022/08/29 02:53:19;;;;;;;10.38;3.25;;;;;;;;;;4976710;28;20544;-72
2022/08/29 02:55:46;;;;;;;7.20;2.85;;;;;;;;;;4991471;28;20073;-72
2022/08/29 02:58:12;;;;;;;8.60;3.42;;;;;;;;;;4983490;28;20393;-72
2022/08/29 03:00:40;;;;;;;6.30;3.28;;;;;;;;;;4980531;28;20027;-72
2022/08/29 03:03:06;;;;;;;7.45;3.20;;;;;;;;;;4985291;28;20750;-72
2022/08/29 03:05:36;;;;;;;6.60;3.00;;;;;;;;;;4988354;28;20160;-72
2022/08/29 03:08:04;;;;;;;8.02;4.00;;;;;;;;;;4987264;28;20027;-72
2022/08/29 03:10:30;;;;;;;7.60;3.42;;;;;;;;;;4984913;28;20077;-72
2022/08/29 03:12:57;;;;;;;10.85;3.95;;;;;;;;;;4986702;28;20035;-71
2022/08/29 03:15:24;;;;;;;9.68;3.53;;;;;;;;;;4986812;28;20061;-72
2022/08/29 03:17:50;;;;;;;10.98;3.38;;;;;;;;;;4990258;28;20102;-72
2022/08/29 03:20:17;;;;;;;8.00;2.95;;;;;;;;;;4976837;28;20089;-72
2022/08/29 03:22:44;;;;;;;9.65;3.97;;;;;;;;;;4983233;28;20043;-72
2022/08/29 03:25:12;;;;;;;7.35;3.75;;;;;;;;;;4976711;28;20026;-72
2022/08/29 03:27:38;;;;;;;9.75;3.80;;;;;;;;;;4971788;28;20617;-72
2022/08/29 03:30:06;;;;;;;10.82;4.25;;;;;;;;;;4978846;28;20393;-72
2022/08/29 03:32:32;;;;;;;8.98;3.45;;;;;;;;;;4972584;28;20061;-72
2022/08/29 03:34:58;;;;;;;7.82;3.47;;;;;;;;;;4976842;28;20062;-71
2022/08/29 03:37:25;;;;;;;10.02;3.28;;;;;;;;;;4990945;28;20066;-72
2022/08/29 03:39:52;;;;;;;8.65;4.25;;;;;;;;;;4980633;28;20034;-72
2022/08/29 03:42:18;;;;;;;9.70;4.35;;;;;;;;;;4983038;28;20047;-71
2022/08/29 03:44:44;;;;;;;8.35;4.03;;;;;;;;;;4975355;28;20023;-71
2022/08/29 03:47:10;;;;;;;8.55;3.92;;;;;;;;;;4971490;28;20066;-72
2022/08/29 03:49:37;;;;;;;9.27;3.63;;;;;;;;;;4957809;28;20026;-72
2022/08/29 03:52:03;;;;;;;8.32;3.80;;;;;;;;;;4983988;28;20050;-72
2022/08/29 03:54:29;;;;;;;10.18;4.22;;;;;;;;;;4983986;28;20026;-71
2022/08/29 03:56:55;;;;;;;7.88;3.50;;;;;;;;;;4981788;28;20027;-71
2022/08/29 03:59:22;;;;;;;10.90;4.40;;;;;;;;;;4987319;28;20035;-72
2022/08/29 04:01:48;;;;;;;7.43;3.92;;;;;;;;;;4971458;28;20045;-72
2022/08/29 04:07:17;;;;;;;8.65;4.07;;;;;;;;;;4952116;28;20031;-72
2022/08/29 04:09:43;;;;;;;8.85;3.75;;;;;;;;;;4977279;28;20080;-72
2022/08/29 04:12:10;;;;;;;10.05;4.00;;;;;;;;;;4971591;28;20030;-71
2022/08/29 04:14:37;;;;;;;7.32;3.60;;;;;;;;;;4955998;28;20033;-71
2022/08/29 04:17:03;;;;;;;6.50;3.15;;;;;;;;;;4955084;28;20474;-71
2022/08/29 04:19:30;;;;;;;12.88;4.18;;;;;;;;;;4968152;28;20034;-71
2022/08/29 04:21:57;;;;;;;6.75;3.40;;;;;;;;;;4981649;28;20050;-72
2022/08/29 04:24:24;;;;;;;7.53;3.75;;;;;;;;;;4975149;28;20062;-72
2022/08/29 04:26:50;;;;;;;8.88;3.67;;;;;;;;;;4983639;28;20038;-72
2022/08/29 04:29:17;;;;;;;8.88;4.18;;;;;;;;;;4989791;28;20133;-72
2022/08/29 04:31:43;;;;;;;7.75;3.75;;;;;;;;;;4981669;28;20033;-72
2022/08/29 04:34:10;;;;;;;11.15;4.13;;;;;;;;;;4982074;28;20037;-71
2022/08/29 04:36:40;;;;;;;8.88;3.80;;;;;;;;;;4984864;28;20061;-70
2022/08/29 04:39:06;;;;;;;11.57;4.22;;;;;;;;;;4971782;28;20085;-71
2022/08/29 04:41:33;;;;;;;8.63;3.70;;;;;;;;;;4974525;28;20097;-71
2022/08/29 04:43:59;;;;;;;11.50;4.45;;;;;;;;;;4970770;28;20089;-71
2022/08/29 04:46:25;;;;;;;7.57;3.65;;;;;;;;;;4973105;28;20066;-72
2022/08/29 04:48:52;;;;;;;11.75;4.22;;;;;;;;;;4983381;28;20077;-72
2022/08/29 04:51:18;;;;;;;8.60;3.63;;;;;;;;;;4986130;28;20111;-72
2022/08/29 04:53:44;;;;;;;8.52;3.03;;;;;;;;;;4970104;28;20054;-72
2022/08/29 04:56:11;;;;;;;10.32;3.95;;;;;;;;;;4977691;28;20037;-72
2022/08/29 04:58:40;;;;;;;8.90;3.53;;;;;;;;;;4971454;28;20035;-71
2022/08/29 05:01:06;;;;;;;11.20;3.50;;;;;;;;;;4973571;28;20022;-71
2022/08/29 05:03:33;;;;;;;9.05;4.18;;;;;;;;;;4983760;28;20041;-71
2022/08/29 05:06:00;;;;;;;12.63;4.68;;;;;;;;;;4970558;28;20095;-71
2022/08/29 05:08:27;;;;;;;9.27;3.60;;;;;;;;;;4982709;28;20042;-70
2022/08/29 05:10:53;;;;;;;9.98;4.15;;;;;;;;;;4952682;28;20031;-71
2022/08/29 05:13:20;;;;;;;7.68;3.20;;;;;;;;;;4957588;28;20034;-70
2022/08/29 05:15:46;;;;;;;8.50;3.38;;;;;;;;;;4990095;28;20033;-70
2022/08/29 05:18:12;;;;;;;8.73;3.88;;;;;;;;;;4977451;28;20058;-71
2022/08/29 05:20:39;;;;;;;8.77;3.28;;;;;;;;;;4988862;28;20026;-72
2022/08/29 05:23:05;;;;;;;9.85;3.80;;;;;;;;;;4982323;28;20042;-72
2022/08/29 05:25:32;;;;;;;9.27;3.42;;;;;;;;;;4977881;28;20051;-72
2022/08/29 05:27:58;;;;;;;9.80;3.95;;;;;;;;;;4981751;28;20477;-72
2022/08/29 05:30:24;;;;;;;9.52;4.25;;;;;;;;;;4980218;28;20039;-72
2022/08/29 05:32:51;;;;;;;8.43;3.67;;;;;;;;;;4980360;28;20101;-72
2022/08/29 05:35:17;;;;;;;9.10;4.03;;;;;;;;;;4978617;28;20109;-72
2022/08/29 05:37:44;;;;;;;6.55;2.92;;;;;;;;;;4980430;28;20053;-72
2022/08/29 05:40:10;;;;;;;8.60;3.38;;;;;;;;;;4979143;28;20058;-72
2022/08/29 05:42:37;;;;;;;8.23;3.22;;;;;;;;;;4978365;28;20049;-72
2022/08/29 05:45:04;;;;;;;7.65;3.25;;;;;;;;;;4980696;28;20026;-72
2022/08/29 05:47:30;;;;;;;9.15;3.90;;;;;;;;;;4975849;28;20534;-72
2022/08/29 05:49:57;;;;;;;7.80;3.40;;;;;;;;;;4979448;28;20030;-72
2022/08/29 05:52:23;;;;;;;8.13;3.70;;;;;;;;;;4979601;28;20038;-72
2022/08/29 05:54:50;;;;;;;9.82;3.67;;;;;;;;;;4978277;28;20472;-71
2022/08/29 05:57:18;;;;;;;9.88;4.40;;;;;;;;;;4980835;28;20050;-71
2022/08/29 05:59:44;;;;;;;6.43;3.15;;;;;;;;;;4978298;28;20023;-72
2022/08/29 06:02:11;;;;;;;12.27;3.78;;;;;;;;;;4979256;28;20440;-72
2022/08/29 06:04:37;;;;;;;7.53;3.63;;;;;;;;;;4977331;28;20037;-71
2022/08/29 06:07:03;;;;;;;8.52;3.47;;;;;;;;;;4978703;28;20023;-71
2022/08/29 06:09:29;;;;;;;10.70;4.13;;;;;;;;;;4977990;28;20042;-73
2022/08/29 06:11:57;;;;;;;12.98;3.88;;;;;;;;;;4980515;28;20041;-72
2022/08/29 06:14:23;;;;;;;9.02;3.53;;;;;;;;;;4978996;28;20501;-73
2022/08/29 06:16:49;;;;;;;7.82;3.33;;;;;;;;;;4974849;28;20026;-72
2022/08/29 06:19:16;;;;;;;7.28;3.28;;;;;;;;;;4988252;28;20800;-71
2022/08/29 06:21:42;;;;;;;8.35;3.22;;;;;;;;;;4980563;28;20504;-71
2022/08/29 06:24:08;;;;;;;10.45;3.05;;;;;;;;;;4984517;28;20031;-71
2022/08/29 06:26:35;;;;;;;12.48;3.42;;;;;;;;;;4983980;28;20062;-71
2022/08/29 06:29:04;;;;;;;6.70;2.55;;;;;;;;;;4991589;28;20031;-71
2022/08/29 06:31:30;;;;;;;9.55;3.00;;;;;;;;;;4980625;28;20488;-72
2022/08/29 06:33:57;;;;;;;8.38;3.20;;;;;;;;;;4976597;28;20039;-72
2022/08/29 06:36:26;;;;;;;7.82;2.72;;;;;;;;;;4988818;28;20030;-72
2022/08/29 06:38:55;;;;;;;10.07;3.20;;;;;;;;;;4991912;28;20168;-70
2022/08/29 06:41:21;;;;;;;6.90;2.92;;;;;;;;;;4984852;28;20022;-71
2022/08/29 06:43:47;;;;;;;7.45;2.97;;;;;;;;;;4967634;28;20035;-70
2022/08/29 06:46:21;;;;;;;7.78;2.97;;;;;;;;;;4984858;28;20033;-72
2022/08/29 06:48:47;;;;;;;8.60;3.25;;;;;;;;;;4985457;28;20093;-72
2022/08/29 06:51:13;;;;;;;6.53;2.60;;;;;;;;;;4982485;28;20094;-71
2022/08/29 06:53:39;;;;;;;7.38;2.65;;;;;;;;;;4973547;28;20637;-71
2022/08/29 06:56:06;;;;;;;7.60;2.53;;;;;;;;;;4978885;28;20027;-71
2022/08/29 06:58:33;;;;;;;7.13;2.15;;;;;;;;;;4973524;28;20668;-71
2022/08/29 07:00:59;;;;;;;10.60;3.20;;;;;;;;;;4985151;28;20062;-71
2022/08/29 07:03:25;;;;;;;13.88;3.10;;;;;;;;;;4972204;28;20047;-72
2022/08/29 07:05:54;;;;;;;12.32;2.75;;;;;;;;;;4975857;28;20038;-71
2022/08/29 07:08:22;;;;;;;6.80;2.35;;;;;;;;;;4981798;28;20030;-71
2022/08/29 07:10:49;;;;;;;8.18;2.30;;;;;;;;;;4984016;28;20030;-71
2022/08/29 07:13:15;;;;;;;11.05;3.03;;;;;;;;;;4980287;28;20030;-72
2022/08/29 07:15:41;;;;;;;9.65;2.47;;;;;;;;;;4982272;28;20054;-70
2022/08/29 07:18:07;;;;;;;8.77;2.60;;;;;;;;;;4976969;28;20041;-71
2022/08/29 07:20:33;;;;;;;6.72;2.58;;;;;;;;;;4975999;28;20038;-72
2022/08/29 07:22:59;;;;;;;13.65;3.83;;;;;;;;;;4977533;28;20038;-73
2022/08/29 07:25:26;;;;;;;12.05;2.92;;;;;;;;;;4977040;28;20084;-72
2022/08/29 07:27:52;;;;;;;8.85;2.95;;;;;;;;;;4975092;28;20110;-73
2022/08/29 07:30:19;;;;;;;7.53;2.83;;;;;;;;;;4977999;28;20038;-72
2022/08/29 07:32:46;;;;;;;6.57;2.40;;;;;;;;;;4978805;28;20034;-71
2022/08/29 07:35:15;;;;;;;8.32;3.33;;;;;;;;;;4977820;28;20039;-71
2022/08/29 07:37:42;;;;;;;6.97;2.83;;;;;;;;;;4961453;28;20034;-71
2022/08/29 07:40:09;;;;;;;5.00;2.20;;;;;;;;;;4979794;28;20137;-70
2022/08/29 07:42:36;;;;;;;8.02;2.40;;;;;;;;;;4979482;28;20066;-70
2022/08/29 07:45:02;;;;;;;7.55;2.63;;;;;;;;;;4979347;28;20022;-69
2022/08/29 07:47:28;;;;;;;7.15;2.78;;;;;;;;;;4981121;28;20076;-71
2022/08/29 07:49:54;;;;;;;5.88;1.95;;;;;;;;;;4977190;28;20069;-69
2022/08/29 07:52:20;;;;;;;5.65;2.00;;;;;;;;;;4978591;28;20026;-69
2022/08/29 07:54:46;;;;;;;8.15;2.92;;;;;;;;;;4979200;28;20054;-69
2022/08/29 07:57:15;;;;;;;5.55;1.90;;;;;;;;;;4977982;28;20033;-69
2022/08/29 07:59:41;;;;;;;6.95;2.22;;;;;;;;;;4976268;28;20113;-70
2022/08/29 08:02:07;;;;;;;5.47;2.25;;;;;;;;;;4978987;28;20129;-70
2022/08/29 08:04:33;;;;;;;5.07;2.30;;;;;;;;;;4980592;28;20022;-70
2022/08/29 08:06:59;;;;;;;5.30;2.13;;;;;;;;;;4979697;28;20050;-70
2022/08/29 08:09:25;;;;;;;6.45;2.30;;;;;;;;;;4980363;28;21731;-71
2022/08/29 08:11:52;;;;;;;6.28;2.15;;;;;;;;;;4976699;28;20125;-71
2022/08/29 08:14:18;;;;;;;5.90;1.80;;;;;;;;;;4962310;28;20104;-72
2022/08/29 08:16:44;;;;;;;5.45;2.53;;;;;;;;;;4977185;28;20085;-71
2022/08/29 08:19:11;;;;;;;7.22;2.80;;;;;;;;;;4977635;28;20389;-71
2022/08/29 08:21:38;;;;;;;7.32;2.67;;;;;;;;;;4978217;28;20072;-72
2022/08/29 08:24:04;;;;;;;5.50;2.85;;;;;;;;;;4979402;28;20045;-72
2022/08/29 08:26:30;;;;;;;8.02;2.55;;;;;;;;;;4977310;28;20102;-71
2022/08/29 08:28:56;;;;;;;6.32;2.25;;;;;;;;;;4978369;28;20022;-72
2022/08/29 08:31:23;;;;;;;6.03;2.45;;;;;;;;;;4979361;28;20065;-71
2022/08/29 08:33:49;;;;;;;5.72;1.92;;;;;;;;;;4977965;28;20112;-72
2022/08/29 08:36:18;;;;;;;4.85;2.40;;;;;;;;;;4975869;28;20027;-72
2022/08/29 08:38:45;;;;;;;4.53;2.25;;;;;;;;;;4978108;28;20035;-70
2022/08/29 08:41:23;;;;;;;4.75;1.90;;;;;;;;;;4979716;28;20600;-71
2022/08/29 08:43:52;;;;;;;5.38;2.10;;;;;;;;;;4977713;28;20514;-72
2022/08/29 08:46:26;;;;;;;4.40;2.17;;;;;;;;;;4977434;28;20023;-73
2022/08/29 08:48:53;;;;;;;5.90;2.60;;;;;;;;;;4976639;28;20152;-73
2022/08/29 08:51:23;;;;;;;6.65;2.58;;;;;;;;;;4976261;28;20564;-74
2022/08/29 08:53:51;;;;;;;5.73;2.30;;;;;;;;;;4978548;28;20370;-73
2022/08/29 08:56:36;;;;;;;5.80;2.15;;;;;;;;;;4978374;28;20530;-72
2022/08/29 08:59:08;;;;;;;5.90;2.38;;;;;;;;;;4961417;28;20058;-73
2022/08/29 09:01:42;;;;;;;7.63;2.13;;;;;;;;;;4974570;28;20034;-72
2022/08/29 09:04:14;;;;;;;5.47;2.22;;;;;;;;;;4976742;28;20033;-72
2022/08/29 09:06:47;;;;;;;7.82;2.28;;;;;;;;;;4973541;28;20401;-72
2022/08/29 09:09:13;;;;;;;8.20;2.40;;;;;;;;;;4958840;28;20030;-71
2022/08/29 09:11:47;;;;;;;11.43;2.70;;;;;;;;;;4976344;28;20100;-72
2022/08/29 09:14:25;;;;;;;6.22;2.00;;;;;;;;;;4976829;28;20023;-73
2022/08/29 09:16:54;;;;;;;7.18;2.47;;;;;;;;;;4978920;28;20034;-72
2022/08/29 09:19:20;;;;;;;3.85;1.73;;;;;;;;;;4974342;28;20039;-73
2022/08/29 09:21:48;;;;;;;6.03;1.95;;;;;;;;;;4975561;28;20497;-73
2022/08/29 09:24:25;;;;;;;3.55;1.50;;;;;;;;;;4977411;28;20056;-73
2022/08/29 09:26:51;;;;;;;4.30;1.77;;;;;;;;;;4960026;28;20038;-72
2022/08/29 09:29:19;;;;;;;4.68;2.28;;;;;;;;;;4975200;28;22694;-74
2022/08/29 09:31:46;;;;;;;6.75;2.75;;;;;;;;;;4976013;28;20022;-73
2022/08/29 09:34:32;;;;;;;10.30;2.38;;;;;;;;;;4977777;28;20065;-73
2022/08/29 09:37:03;;;;;;;5.15;1.85;;;;;;;;;;4979169;28;20113;-73
2022/08/29 09:39:32;;;;;;;4.80;1.83;;;;;;;;;;4978095;28;20129;-74
2022/08/29 09:42:20;;;;;;;4.28;1.75;;;;;;;;;;4974702;28;21519;-74
2022/08/29 09:44:57;;;;;;;7.38;2.50;;;;;;;;;;4977792;28;20078;-72
2022/08/29 09:47:26;;;;;;;4.82;1.80;;;;;;;;;;4977669;28;20050;-73
2022/08/29 09:50:11;;;;;;;5.53;1.90;;;;;;;;;;4974822;28;20165;-71
2022/08/29 09:52:50;;;;;;;6.18;2.33;;;;;;;;;;4981081;28;20026;-71
2022/08/29 09:55:18;;;;;;;5.70;1.95;;;;;;;;;;4978019;28;20033;-72
2022/08/29 09:57:49;;;;;;;4.85;1.73;;;;;;;;;;4981756;28;20392;-71
2022/08/29 10:00:17;;;;;;;4.45;1.75;;;;;;;;;;4964753;28;20501;-73
2022/08/29 10:02:43;;;;;;;4.80;2.00;;;;;;;;;;4981499;28;20037;-72
2022/08/29 10:05:25;;;;;;;4.22;1.63;;;;;;;;;;4980084;28;20038;-73
2022/08/29 10:07:52;;;;;;;4.45;1.52;;;;;;;;;;4978041;28;20030;-71
2022/08/29 10:10:20;;;;;;;4.95;1.55;;;;;;;;;;4980315;28;20038;-72
2022/08/29 10:12:54;;;;;;;4.78;1.50;;;;;;;;;;4980290;28;20026;-71
2022/08/29 10:15:25;;;;;;;4.15;1.88;;;;;;;;;;4979954;28;20034;-73
2022/08/29 10:18:23;;;;;;;5.18;1.60;;;;;;;;;;4979282;28;20138;-73
2022/08/29 10:20:49;;;;;;;4.53;1.52;;;;;;;;;;4978352;28;20864;-72
2022/08/29 10:23:36;;;;;;;4.38;1.48;;;;;;;;;;4980367;28;20073;-73
2022/08/29 10:26:07;;;;;;;4.57;2.05;;;;;;;;;;4980393;28;20030;-72
2022/08/29 10:28:38;;;;;;;3.88;1.30;;;;;;;;;;4979697;28;20080;-72
2022/08/29 10:31:05;;;;;;;5.80;2.13;;;;;;;;;;4979389;28;20084;-73
2022/08/29 10:33:47;;;;;;;4.28;1.60;;;;;;;;;;4982181;28;20037;-72
2022/08/29 10:36:25;;;;;;;4.68;1.70;;;;;;;;;;4978908;28;20058;-73
2022/08/29 10:38:51;;;;;;;4.10;1.35;;;;;;;;;;4980900;28;20108;-72
2022/08/29 10:41:17;;;;;;;3.88;1.30;;;;;;;;;;4982065;28;20037;-70
2022/08/29 10:44:07;;;;;;;4.63;1.30;;;;;;;;;;4976759;28;20388;-71
2022/08/29 10:46:44;;;;;;;3.90;1.33;;;;;;;;;;4943219;28;20053;-72
2022/08/29 10:49:22;;;;;;;4.63;1.75;;;;;;;;;;4981683;28;20077;-71
2022/08/29 10:52:09;;;;;;;4.75;1.50;;;;;;;;;;4979013;28;20568;-73
2022/08/29 10:54:51;;;;;;;4.68;1.60;;;;;;;;;;4978525;28;20054;-73
2022/08/29 10:57:35;;;;;;;3.50;1.48;;;;;;;;;;4980728;28;20110;-73
2022/08/29 11:00:05;;;;;;;3.03;1.17;;;;;;;;;;4981734;28;20042;-72
2022/08/29 11:02:41;;;;;;;2.80;1.00;;;;;;;;;;4978732;28;20034;-72
2022/08/29 11:05:10;;;;;;;5.80;1.73;;;;;;;;;;4975303;28;20281;-72
2022/08/29 11:07:50;;;;;;;3.40;1.15;;;;;;;;;;4976227;28;20027;-72
2022/08/29 11:10:19;;;;;;;6.63;2.28;;;;;;;;;;4980222;28;20030;-72
2022/08/29 11:12:45;;;;;;;4.25;1.50;;;;;;;;;;4976610;28;20488;-73
2022/08/29 11:15:11;;;;;;;4.70;1.52;;;;;;;;;;4976520;28;20065;-73
2022/08/29 11:17:39;;;;;;;4.80;1.55;;;;;;;;;;4974104;28;20027;-73
2022/08/29 11:20:10;;;;;;;4.53;1.30;;;;;;;;;;4960630;28;20100;-73
2022/08/29 11:22:45;;;;;;;4.95;1.40;;;;;;;;;;4978637;28;20058;-72
2022/08/29 11:25:16;;;;;;;3.80;1.50;;;;;;;;;;4976159;28;20038;-73
2022/08/29 11:27:43;;;;;;;3.17;1.27;;;;;;;;;;4979584;28;20105;-73
2022/08/29 11:30:15;;;;;;;4.57;1.73;;;;;;;;;;4977035;28;20030;-73
2022/08/29 11:32:50;;;;;;;4.97;1.65;;;;;;;;;;4979833;28;20042;-71
2022/08/29 11:35:37;;;;;;;4.40;1.50;;;;;;;;;;4959821;28;20186;-72
2022/08/29 11:38:21;;;;;;;2.92;1.10;;;;;;;;;;4977096;28;20023;-72
2022/08/29 11:40:50;;;;;;;3.38;1.25;;;;;;;;;;4976970;28;20026;-72
2022/08/29 11:43:19;;;;;;;4.03;1.70;;;;;;;;;;4975745;28;20670;-72
2022/08/29 11:45:53;;;;;;;4.85;1.40;;;;;;;;;;4976587;28;20058;-72
2022/08/29 11:48:31;;;;;;;3.78;1.48;;;;;;;;;;4974567;28;20444;-72
2022/08/29 11:50:58;;;;;;;4.60;1.50;;;;;;;;;;4974810;28;20060;-72
2022/08/29 11:53:36;;;;;;;6.05;1.67;;;;;;;;;;4979284;28;20026;-72
2022/08/29 11:56:14;;;;;;;5.28;1.80;;;;;;;;;;4979256;28;20043;-73
2022/08/29 11:58:43;;;;;;;4.95;1.73;;;;;;;;;;4979131;28;20475;-72
2022/08/29 12:01:11;;;;;;;4.00;1.70;;;;;;;;;;4978435;28;20034;-71
2022/08/29 12:03:37;;;;;;;5.88;2.10;;;;;;;;;;4976321;28;20041;-72
2022/08/29 12:06:23;;;;;;;3.20;1.23;;;;;;;;;;4977356;28;20036;-72
2022/08/29 12:09:17;;;;;;;4.65;1.60;;;;;;;;;;4976099;28;20030;-72
2022/08/29 12:11:59;;;;;;;4.82;1.92;;;;;;;;;;4976234;28;20527;-72
2022/08/29 12:14:29;;;;;;;4.20;1.50;;;;;;;;;;4976053;28;20034;-71
2022/08/29 12:16:57;;;;;;;7.70;2.28;;;;;;;;;;4974784;28;20128;-72
2022/08/29 12:19:42;;;;;;;4.90;1.73;;;;;;;;;;4977134;28;20034;-71
2022/08/29 12:22:08;;;;;;;4.60;1.75;;;;;;;;;;4962164;28;20071;-71
2022/08/29 12:24:41;;;;;;;6.53;2.08;;;;;;;;;;4981283;28;20074;-72
2022/08/29 12:27:37;;;;;;;4.63;2.00;;;;;;;;;;4975724;28;20065;-72
2022/08/29 12:30:06;;;;;;;4.22;1.60;;;;;;;;;;4885026;28;20092;-73
2022/08/29 12:32:50;;;;;;;5.45;1.92;;;;;;;;;;4976933;28;20053;-72
2022/08/29 12:35:23;;;;;;;3.63;1.48;;;;;;;;;;4976092;28;20782;-74
2022/08/29 12:38:16;;;;;;;3.92;1.50;;;;;;;;;;4973613;28;20029;-72
2022/08/29 12:40:45;;;;;;;5.85;1.42;;;;;;;;;;4959325;28;20965;-71
2022/08/29 12:43:30;;;;;;;3.58;1.50;;;;;;;;;;4974812;28;20397;-71
2022/08/29 12:45:57;;;;;;;3.80;1.60;;;;;;;;;;4969821;28;20026;-72
2022/08/29 12:48:34;;;;;;;4.38;1.67;;;;;;;;;;4976032;28;20066;-72
2022/08/29 12:51:03;;;;;;;3.53;1.60;;;;;;;;;;4973452;28;20169;-72
2022/08/29 12:53:34;;;;;;;3.47;1.42;;;;;;;;;;4973385;28;20088;-71
2022/08/29 12:56:13;;;;;;;5.57;1.60;;;;;;;;;;4957640;28;20116;-72
2022/08/29 12:58:43;;;;;;;3.13;1.38;;;;;;;;;;4972703;28;20027;-73
2022/08/29 13:01:20;;;;;;;2.75;1.30;;;;;;;;;;4972579;28;20559;-73
2022/08/29 13:04:01;;;;;;;2.42;1.08;;;;;;;;;;4975964;28;20137;-72
2022/08/29 13:06:27;;;;;;;4.53;1.73;;;;;;;;;;4971114;28;20134;-72
2022/08/29 13:08:53;;;;;;;3.42;1.20;;;;;;;;;;4975233;28;20320;-72
2022/08/29 13:11:24;;;;;;;4.25;1.27;;;;;;;;;;4975581;28;20041;-72
2022/08/29 13:13:50;;;;;;;2.97;1.58;;;;;;;;;;4973461;28;20441;-72
2022/08/29 13:16:28;;;;;;;2.50;1.15;;;;;;;;;;4974579;28;20901;-72
2022/08/29 13:18:54;;;;;;;3.17;1.65;;;;;;;;;;4977331;28;20455;-71
2022/08/29 13:21:22;;;;;;;4.78;1.50;;;;;;;;;;4977601;28;20027;-72
2022/08/29 13:24:00;;;;;;;3.80;1.10;;;;;;;;;;4978197;28;20108;-71
2022/08/29 13:26:27;;;;;;;2.85;1.35;;;;;;;;;;4970102;28;20401;-72
2022/08/29 13:28:54;;;;;;;3.85;1.45;;;;;;;;;;4983927;28;20022;-71
2022/08/29 13:31:32;;;;;;;2.75;1.08;;;;;;;;;;4984340;28;20401;-72
2022/08/29 13:33:58;;;;;;;3.03;1.20;;;;;;;;;;4978831;28;20026;-72
2022/08/29 13:36:27;;;;;;;4.22;1.60;;;;;;;;;;4982069;28;20105;-72
2022/08/29 13:39:12;;;;;;;3.53;1.38;;;;;;;;;;4966014;28;20739;-72
2022/08/29 13:41:38;;;;;;;4.38;1.55;;;;;;;;;;4981003;28;20036;-72
2022/08/29 13:44:15;;;;;;;4.32;1.70;;;;;;;;;;4979244;28;20061;-73
2022/08/29 13:46:45;;;;;;;4.50;1.38;;;;;;;;;;4980421;28;20054;-72
2022/08/29 13:49:19;;;;;;;3.35;1.17;;;;;;;;;;4977611;28;20110;-73
2022/08/29 13:51:47;;;;;;;4.20;1.60;;;;;;;;;;4981345;28;20043;-73
2022/08/29 13:54:13;;;;;;;2.92;1.10;;;;;;;;;;4960995;28;20389;-72
2022/08/29 13:56:43;;;;;;;4.25;1.75;;;;;;;;;;4980029;28;20120;-72
2022/08/29 13:59:10;;;;;;;2.90;1.50;;;;;;;;;;4963817;28;20040;-72
2022/08/29 14:01:37;;;;;;;3.55;1.40;;;;;;;;;;4982646;28;20030;-73
2022/08/29 14:04:03;;;;;;;3.92;1.70;;;;;;;;;;4982747;28;20022;-73
2022/08/29 14:06:31;;;;;;;4.50;1.27;;;;;;;;;;4979322;28;20041;-72
2022/08/29 14:08:59;;;;;;;5.00;1.55;;;;;;;;;;4980727;28;20045;-73
2022/08/29 14:11:27;;;;;;;2.83;1.10;;;;;;;;;;4982567;28;20137;-72
2022/08/29 14:13:56;;;;;;;4.70;1.60;;;;;;;;;;4981153;28;20022;-73
2022/08/29 14:16:23;;;;;;;5.00;1.73;;;;;;;;;;4980079;28;20110;-74
2022/08/29 14:18:53;;;;;;;3.33;1.55;;;;;;;;;;4980380;28;20039;-73
2022/08/29 14:21:23;;;;;;;;;;;;;;;;;;4978734;28;20516;-72
2022/08/29 14:23:53;;;;;;;4.15;1.60;;;;;;;;;;4982821;28;19914;-73
2022/08/29 14:26:19;;;;;;;3.72;1.20;;;;;;;;;;4981508;28;20107;-74
2022/08/29 14:28:45;;;;;;;3.67;1.27;;;;;;;;;;4981461;28;20029;-72
2022/08/29 14:31:11;;;;;;;2.55;1.17;;;;;;;;;;4978549;28;20058;-73
2022/08/29 14:33:37;;;;;;;4.15;1.77;;;;;;;;;;4975330;28;20473;-73
2022/08/29 14:36:04;;;;;;;2.75;1.23;;;;;;;;;;4978580;28;20059;-73
2022/08/29 14:38:36;;;;;;;4.53;1.65;;;;;;;;;;4979752;28;20556;-73
2022/08/29 14:41:03;;;;;;;4.60;1.30;;;;;;;;;;4976759;28;20385;-73
2022/08/29 14:43:29;;;;;;;5.53;1.92;;;;;;;;;;4977103;28;20084;-72
2022/08/29 14:45:55;;;;;;;3.30;1.33;;;;;;;;;;4975374;28;20038;-73
2022/08/29 14:48:21;;;;;;;3.30;1.45;;;;;;;;;;4977938;28;20070;-73
2022/08/29 14:50:48;;;;;;;4.38;1.40;;;;;;;;;;4975376;28;20633;-73
2022/08/29 14:53:14;;;;;;;3.00;1.23;;;;;;;;;;4977749;28;20024;-74
2022/08/29 14:55:43;;;;;;;2.80;1.40;;;;;;;;;;4979084;28;20158;-73
2022/08/29 14:58:09;;;;;;;4.03;1.27;;;;;;;;;;4978720;28;20489;-74
2022/08/29 15:00:36;;;;;;;4.82;1.30;;;;;;;;;;4964003;28;20026;-74